createdAt,value
2022-09-17T00:01:36.489Z,96411.69
2022-09-17T00:04:05.699Z,96405.16
2022-09-17T00:06:35.578Z,96397.75
2022-09-17T00:09:06.056Z,96406.09
2022-09-17T00:11:35.976Z,96404.31
2022-09-17T00:14:06.011Z,96403.47
2022-09-17T00:16:40.651Z,96408.34
2022-09-17T00:19:13.823Z,96413.69
2022-09-17T00:21:42.080Z,96413.19
2022-09-17T00:24:11.131Z,96404.75
2022-09-17T00:26:39.888Z,96400.88
2022-09-17T00:29:08.275Z,96401.75
2022-09-17T00:31:36.671Z,96405.16
2022-09-17T00:34:05.913Z,96397.06
2022-09-17T00:36:38.136Z,96404.22
2022-09-17T00:39:07.775Z,96401.47
2022-09-17T00:41:36.508Z,96403.63
2022-09-17T00:44:39.203Z,96408.69
2022-09-17T00:47:21.125Z,96406.44
2022-09-17T00:49:50.573Z,96394.03
2022-09-17T00:52:21.406Z,96403.44
2022-09-17T00:55:00.725Z,96416.56
2022-09-17T00:57:29.273Z,96406.06
2022-09-17T00:59:57.474Z,96387.53
2022-09-17T01:02:25.932Z,96398.81
2022-09-17T01:04:54.607Z,96403.34
2022-09-17T01:07:58.473Z,96396.28
2022-09-17T01:10:55.972Z,96398.69
2022-09-17T01:13:47.799Z,96392.59
2022-09-17T01:16:28.688Z,96417.75
2022-09-17T01:19:25.355Z,96407.59
2022-09-17T01:22:07.496Z,96396.56
2022-09-17T01:24:40.429Z,96393.66
2022-09-17T01:27:26.210Z,96377.22
2022-09-17T01:30:08.940Z,96386.97
2022-09-17T01:32:40.735Z,96383.69
2022-09-17T01:35:24.573Z,96379.41
2022-09-17T01:38:07.945Z,96369.78
2022-09-17T01:40:50.077Z,96382.66
2022-09-17T01:43:53.186Z,96383.50
2022-09-17T01:46:22.932Z,96387.00
2022-09-17T01:48:52.372Z,96387.56
2022-09-17T01:51:22.964Z,96370.94
2022-09-17T01:54:00.227Z,96384.28
2022-09-17T01:57:02.979Z,96388.94
2022-09-17T01:59:35.207Z,96400.81
2022-09-17T02:02:09.342Z,96387.88
2022-09-17T02:04:41.494Z,96372.31
2022-09-17T02:07:14.668Z,96372.66
2022-09-17T02:09:44.697Z,96375.09
2022-09-17T02:12:16.671Z,96355.38
2022-09-17T02:14:51.564Z,96360.19
2022-09-17T02:17:49.692Z,96342.41
2022-09-17T02:20:22.837Z,96341.72
2022-09-17T02:22:57.008Z,96331.88
2022-09-17T02:25:29.438Z,96319.69
2022-09-17T02:28:17.677Z,96306.16
2022-09-17T02:30:46.030Z,96305.34
2022-09-17T02:33:15.046Z,96304.22
2022-09-17T02:35:44.322Z,96330.50
2022-09-17T02:38:12.552Z,96336.22
2022-09-17T02:40:51.158Z,96331.13
2022-09-17T02:43:52.600Z,96334.91
2022-09-17T02:46:27.252Z,96342.91
2022-09-17T02:49:10.874Z,96335.94
2022-09-17T02:52:32.053Z,96303.75
2022-09-17T02:55:29.711Z,96305.75
2022-09-17T02:58:03.686Z,96299.56
2022-09-17T03:00:32.098Z,96289.31
2022-09-17T03:03:34.057Z,96279.19
2022-09-17T03:06:02.312Z,96282.63
2022-09-17T03:08:36.972Z,96288.34
2022-09-17T03:11:06.148Z,96278.44
2022-09-17T03:13:36.362Z,96260.66
2022-09-17T03:16:05.209Z,96258.38
2022-09-17T03:18:33.558Z,96256.75
2022-09-17T03:21:03.074Z,96265.91
2022-09-17T03:23:31.385Z,96266.97
2022-09-17T03:25:59.924Z,96252.81
2022-09-17T03:28:28.235Z,96243.09
2022-09-17T03:30:57.053Z,96249.38
2022-09-17T03:33:25.275Z,96230.34
2022-09-17T03:35:53.565Z,96217.59
2022-09-17T03:38:22.114Z,96225.19
2022-09-17T03:41:04.757Z,96223.75
2022-09-17T03:43:33.183Z,96227.44
2022-09-17T03:46:01.478Z,96213.78
2022-09-17T03:48:30.795Z,96225.69
2022-09-17T03:50:59.750Z,96218.59
2022-09-17T03:53:27.938Z,96221.13
2022-09-17T03:55:59.753Z,96216.59
2022-09-17T03:58:28.810Z,96220.03
2022-09-17T04:00:58.618Z,96229.56
2022-09-17T04:03:30.270Z,96231.09
2022-09-17T04:05:58.631Z,96223.47
2022-09-17T04:08:26.855Z,96220.44
2022-09-17T04:10:55.228Z,96213.91
2022-09-17T04:13:23.405Z,96211.13
2022-09-17T04:15:52.440Z,96208.16
2022-09-17T04:18:20.779Z,96186.00
2022-09-17T04:20:49.571Z,96194.00
2022-09-17T04:23:17.882Z,96195.56
2022-09-17T04:25:46.195Z,96193.97
2022-09-17T04:28:15.136Z,96192.47
2022-09-17T04:30:43.487Z,96202.84
2022-09-17T04:33:11.889Z,96208.16
2022-09-17T04:35:40.780Z,96208.94
2022-09-17T04:38:09.527Z,96219.31
2022-09-17T04:40:37.860Z,96244.25
2022-09-17T04:43:06.456Z,96246.09
2022-09-17T04:45:34.747Z,96252.81
2022-09-17T04:48:03.021Z,96247.41
2022-09-17T04:50:32.246Z,96260.00
2022-09-17T04:53:00.482Z,96263.75
2022-09-17T04:55:28.775Z,96262.59
2022-09-17T04:57:57.149Z,96276.16
2022-09-17T05:00:25.578Z,96287.66
2022-09-17T05:02:54.789Z,96295.22
2022-09-17T05:05:23.605Z,96295.69
2022-09-17T05:07:53.193Z,96316.66
2022-09-17T05:10:22.811Z,96319.00
2022-09-17T05:12:52.348Z,96316.53
2022-09-17T05:15:21.510Z,96307.09
2022-09-17T05:17:49.970Z,96326.06
2022-09-17T05:20:18.541Z,96324.59
2022-09-17T05:22:48.729Z,96322.84
2022-09-17T05:25:17.772Z,96350.00
2022-09-17T05:27:46.811Z,96359.09
2022-09-17T05:30:15.756Z,96355.31
2022-09-17T05:32:44.033Z,96367.78
2022-09-17T05:35:12.314Z,96373.16
2022-09-17T05:37:40.691Z,96361.03
2022-09-17T05:40:10.694Z,96351.78
2022-09-17T05:42:39.140Z,96347.50
2022-09-17T05:45:08.172Z,96340.31
2022-09-17T05:47:36.574Z,96331.72
2022-09-17T05:50:05.276Z,96319.91
2022-09-17T05:52:33.533Z,96318.06
2022-09-17T05:55:01.850Z,96316.06
2022-09-17T05:57:30.771Z,96311.19
2022-09-17T05:59:59.102Z,96318.91
2022-09-17T06:02:28.077Z,96332.06
2022-09-17T06:04:56.627Z,96330.06
2022-09-17T06:07:24.984Z,96336.41
2022-09-17T06:09:55.478Z,96355.66
2022-09-17T06:12:23.904Z,96350.72
2022-09-17T06:14:53.506Z,96351.31
2022-09-17T06:17:22.388Z,96363.28
2022-09-17T06:19:53.026Z,96351.31
2022-09-17T06:22:21.437Z,96368.75
2022-09-17T06:24:50.359Z,96375.84
2022-09-17T06:27:18.905Z,96395.31
2022-09-17T06:29:47.622Z,96402.69
2022-09-17T06:32:19.037Z,96403.78
2022-09-17T06:34:47.647Z,96408.22
2022-09-17T06:37:16.703Z,96419.16
2022-09-17T06:39:46.070Z,96422.25
2022-09-17T06:42:14.362Z,96442.47
2022-09-17T06:44:44.952Z,96466.25
2022-09-17T06:47:13.420Z,96480.03
2022-09-17T06:49:42.715Z,96463.94
2022-09-17T06:52:11.164Z,96452.66
2022-09-17T06:54:39.445Z,96435.75
2022-09-17T06:57:07.724Z,96430.75
2022-09-17T06:59:36.153Z,96433.84
2022-09-17T07:02:04.757Z,96420.41
2022-09-17T07:04:36.578Z,96419.69
2022-09-17T07:07:05.820Z,96435.06
2022-09-17T07:09:34.335Z,96428.75
2022-09-17T07:12:04.638Z,96418.16
2022-09-17T07:14:33.017Z,96413.84
2022-09-17T07:17:01.438Z,96416.97
2022-09-17T07:19:29.823Z,96415.06
2022-09-17T07:21:59.153Z,96405.53
2022-09-17T07:24:32.028Z,96404.28
2022-09-17T07:27:01.907Z,96414.81
2022-09-17T07:29:33.480Z,96414.41
2022-09-17T07:32:02.319Z,96397.00
2022-09-17T07:34:30.713Z,96378.78
2022-09-17T07:37:00.172Z,96382.81
2022-09-17T07:39:29.861Z,96381.63
2022-09-17T07:41:58.197Z,96362.41
2022-09-17T07:44:28.774Z,96365.16
2022-09-17T07:46:57.167Z,96369.19
2022-09-17T07:49:25.600Z,96378.09
2022-09-17T07:51:55.168Z,96385.66
2022-09-17T07:54:24.121Z,96391.06
2022-09-17T07:56:52.379Z,96375.53
2022-09-17T07:59:21.558Z,96378.47
2022-09-17T08:01:50.383Z,96375.41
2022-09-17T08:04:19.098Z,96384.03
2022-09-17T08:06:50.034Z,96378.31
2022-09-17T08:09:18.939Z,96359.03
2022-09-17T08:11:56.095Z,96358.53
2022-09-17T08:14:29.442Z,96354.34
2022-09-17T08:16:58.409Z,96341.59
2022-09-17T08:19:30.143Z,96337.94
2022-09-17T08:21:58.925Z,96324.91
2022-09-17T08:24:27.971Z,96319.09
2022-09-17T08:26:56.360Z,96310.75
2022-09-17T08:29:24.767Z,96313.25
2022-09-17T08:31:54.468Z,96300.31
2022-09-17T08:34:23.302Z,96297.38
2022-09-17T08:36:52.994Z,96295.06
2022-09-17T08:39:23.121Z,96283.69
2022-09-17T08:41:58.030Z,96285.97
2022-09-17T08:44:47.404Z,96283.06
2022-09-17T08:47:24.950Z,96275.09
2022-09-17T08:49:59.074Z,96268.56
2022-09-17T08:52:47.717Z,96267.13
2022-09-17T08:55:43.731Z,96271.22
2022-09-17T08:58:30.130Z,96263.22
2022-09-17T09:01:35.834Z,96256.69
2022-09-17T09:04:23.653Z,96248.28
2022-09-17T09:07:04.903Z,96254.00
2022-09-17T09:09:38.627Z,96249.19
2022-09-17T09:12:24.646Z,96239.06
2022-09-17T09:15:19.722Z,96239.19
2022-09-17T09:17:52.391Z,96241.41
2022-09-17T09:20:34.211Z,96234.38
2022-09-17T09:23:18.532Z,96246.97
2022-09-17T09:26:10.995Z,96252.72
2022-09-17T09:29:03.791Z,96262.88
2022-09-17T09:32:15.284Z,96258.41
2022-09-17T09:34:47.253Z,96276.38
2022-09-17T09:37:29.423Z,96273.44
2022-09-17T09:40:22.763Z,96273.44
2022-09-17T09:42:51.235Z,96283.69
2022-09-17T09:45:34.242Z,96302.94
2022-09-17T09:48:29.319Z,96317.78
2022-09-17T09:51:16.826Z,96324.66
2022-09-17T09:53:58.516Z,96344.38
2022-09-17T09:56:54.008Z,96360.25
2022-09-17T09:59:44.690Z,96379.75
2022-09-17T10:02:14.115Z,96396.78
2022-09-17T10:04:44.475Z,96403.91
2022-09-17T10:07:34.034Z,96416.66
2022-09-17T10:10:10.329Z,96429.97
2022-09-17T10:12:45.255Z,96421.31
2022-09-17T10:15:44.077Z,96422.63
2022-09-17T10:18:19.348Z,96418.00
2022-09-17T10:21:00.326Z,96439.91
2022-09-17T10:23:34.679Z,96429.59
2022-09-17T10:26:11.280Z,96435.16
2022-09-17T10:28:51.752Z,96422.03
2022-09-17T10:31:21.809Z,96399.16
2022-09-17T10:34:22.323Z,96380.66
2022-09-17T10:36:57.191Z,96368.59
2022-09-17T10:39:49.267Z,96328.47
2022-09-17T10:42:26.349Z,96322.47
2022-09-17T10:45:06.911Z,96330.81
2022-09-17T10:47:45.410Z,96332.38
2022-09-17T10:50:32.781Z,96346.22
2022-09-17T10:53:29.194Z,96334.34
2022-09-17T10:56:45.633Z,96313.06
2022-09-17T11:00:08.803Z,96315.53
2022-09-17T11:02:58.472Z,96321.41
2022-09-17T11:05:55.706Z,96318.78
2022-09-17T11:09:10.197Z,96333.13
2022-09-17T11:12:19.022Z,96332.06
2022-09-17T11:15:04.661Z,96338.06
2022-09-17T11:17:52.643Z,96341.44
2022-09-17T11:21:03.676Z,96358.13
2022-09-17T11:23:46.744Z,96357.03
2022-09-17T11:27:05.470Z,96344.78
2022-09-17T11:29:58.880Z,96345.00
2022-09-17T11:32:59.229Z,96351.91
2022-09-17T11:35:34.878Z,96346.19
2022-09-17T11:38:31.488Z,96338.59
2022-09-17T11:41:27.997Z,96347.56
2022-09-17T11:44:23.449Z,96339.66
2022-09-17T11:47:03.703Z,96349.38
2022-09-17T11:49:52.801Z,96347.38
2022-09-17T11:52:28.060Z,96329.25
2022-09-17T11:55:21.211Z,96318.63
2022-09-17T11:57:54.805Z,96331.59
2022-09-17T12:00:24.407Z,96330.00
2022-09-17T12:03:02.357Z,96327.69
2022-09-17T12:05:36.253Z,96324.59
2022-09-17T12:08:33.906Z,96314.09
2022-09-17T12:11:19.001Z,96306.66
2022-09-17T12:13:52.116Z,96302.34
2022-09-17T12:16:37.804Z,96295.06
2022-09-17T12:19:28.888Z,96292.44
2022-09-17T12:22:19.786Z,96281.94
2022-09-17T12:24:54.246Z,96296.03
2022-09-17T12:27:37.622Z,96299.84
2022-09-17T12:30:12.382Z,96314.38
2022-09-17T12:32:57.818Z,96322.72
2022-09-17T12:36:05.490Z,96320.72
2022-09-17T12:38:46.751Z,96311.91
2022-09-17T12:41:52.983Z,96312.69
2022-09-17T12:45:05.870Z,96311.19
2022-09-17T12:48:02.186Z,96315.34
2022-09-17T12:50:54.729Z,96292.81
2022-09-17T12:53:47.357Z,96288.44
2022-09-17T12:56:39.268Z,96285.72
2022-09-17T12:59:14.546Z,96275.06
2022-09-17T13:02:03.190Z,96278.59
2022-09-17T13:05:08.150Z,96281.72
2022-09-17T13:07:58.179Z,96280.84
2022-09-17T13:10:30.994Z,96266.59
2022-09-17T13:13:20.378Z,96255.22
2022-09-17T13:16:21.799Z,96270.22
2022-09-17T13:19:20.449Z,96259.09
2022-09-17T13:22:23.357Z,96254.91
2022-09-17T13:25:09.389Z,96251.97
2022-09-17T13:27:41.115Z,96245.59
2022-09-17T13:33:02.109Z,96222.44
2022-09-17T13:35:33.766Z,96240.97
2022-09-17T13:38:04.722Z,96231.75
2022-09-17T13:40:57.977Z,96213.91
2022-09-17T13:43:36.459Z,96217.03
2022-09-17T13:46:12.489Z,96214.53
2022-09-17T13:48:52.889Z,96207.03
2022-09-17T13:51:32.597Z,96202.63
2022-09-17T13:54:03.849Z,96199.09
2022-09-17T13:56:49.433Z,96198.13
2022-09-17T13:59:28.685Z,96172.66
2022-09-17T14:02:30.056Z,96170.00
2022-09-17T14:05:25.894Z,96179.19
2022-09-17T14:08:09.119Z,96170.16
2022-09-17T14:10:43.398Z,96153.56
2022-09-17T14:13:40.104Z,96154.94
2022-09-17T14:16:25.055Z,96135.97
2022-09-17T14:19:17.108Z,96119.09
2022-09-17T14:22:00.929Z,96126.38
2022-09-17T14:24:35.692Z,96122.19
2022-09-17T14:27:18.941Z,96103.03
2022-09-17T14:30:43.842Z,96113.81
2022-09-17T14:33:21.926Z,96100.19
2022-09-17T14:36:03.351Z,96108.25
2022-09-17T14:38:47.928Z,96107.22
2022-09-17T14:41:22.208Z,96117.13
2022-09-17T14:44:04.010Z,96128.84
2022-09-17T14:46:41.051Z,96125.16
2022-09-17T14:49:26.970Z,96132.72
2022-09-17T14:51:58.893Z,96115.84
2022-09-17T14:54:35.772Z,96121.31
2022-09-17T14:57:12.194Z,96105.00
2022-09-17T14:59:49.784Z,96105.78
2022-09-17T15:02:45.210Z,96088.69
2022-09-17T15:05:37.671Z,96079.41
2022-09-17T15:08:09.393Z,96063.81
2022-09-17T15:10:50.524Z,96041.91
2022-09-17T15:13:28.684Z,95999.44
2022-09-17T15:16:01.270Z,95985.38
2022-09-17T15:18:37.386Z,96019.19
2022-09-17T15:21:11.687Z,96066.16
2022-09-17T15:23:41.412Z,96018.09
2022-09-17T15:26:14.116Z,96007.59
2022-09-17T15:28:43.614Z,95992.69
2022-09-17T15:31:20.942Z,95984.84
2022-09-17T15:33:50.535Z,95994.56
2022-09-17T15:36:34.461Z,95963.16
2022-09-17T15:39:25.175Z,95958.53
2022-09-17T15:41:57.333Z,95948.09
2022-09-17T15:44:37.741Z,95971.00
2022-09-17T15:47:59.811Z,95987.69
2022-09-17T15:50:52.448Z,95971.81
2022-09-17T15:53:32.595Z,95957.91
2022-09-17T15:56:18.623Z,95958.53
2022-09-17T15:58:50.506Z,95953.19
2022-09-17T16:01:50.001Z,95956.78
2022-09-17T16:04:37.873Z,95964.19
2022-09-17T16:07:13.030Z,95988.09
2022-09-17T16:09:52.158Z,95992.06
2022-09-17T16:12:26.330Z,95984.09
2022-09-17T16:14:58.437Z,95975.47
2022-09-17T16:17:28.427Z,95971.69
2022-09-17T16:19:57.101Z,95960.81
2022-09-17T16:22:26.840Z,95948.69
2022-09-17T16:25:03.048Z,95944.75
2022-09-17T16:27:47.076Z,95934.22
2022-09-17T16:30:20.960Z,95933.13
2022-09-17T16:33:00.524Z,95921.91
2022-09-17T16:35:30.308Z,95923.19
2022-09-17T16:37:59.017Z,95931.00
2022-09-17T16:40:33.253Z,95919.47
2022-09-17T16:43:02.716Z,95934.34
2022-09-17T16:45:38.408Z,95949.75
2022-09-17T16:48:10.101Z,95944.41
2022-09-17T16:50:42.704Z,95928.56
2022-09-17T16:53:13.326Z,95929.94
2022-09-17T16:55:47.138Z,95934.84
2022-09-17T16:58:17.646Z,95917.25
2022-09-17T17:00:55.313Z,95895.47
2022-09-17T17:03:24.158Z,95905.44
2022-09-17T17:05:54.243Z,95910.19
2022-09-17T17:08:24.081Z,95904.94
2022-09-17T17:10:52.728Z,95912.22
2022-09-17T17:13:21.367Z,95913.50
2022-09-17T17:15:49.950Z,95912.47
2022-09-17T17:18:21.309Z,95910.88
2022-09-17T17:21:27.752Z,95920.22
2022-09-17T17:24:23.319Z,95929.03
2022-09-17T17:26:55.086Z,95934.28
2022-09-17T17:29:27.519Z,95955.84
2022-09-17T17:31:59.992Z,95964.56
2022-09-17T17:34:38.174Z,95968.00
2022-09-17T17:37:09.710Z,95969.09
2022-09-17T17:39:41.070Z,95951.38
2022-09-17T17:42:14.261Z,95934.91
2022-09-17T17:44:46.333Z,95958.94
2022-09-17T17:50:12.625Z,95962.47
2022-09-17T17:52:56.204Z,95975.41
2022-09-17T17:55:31.586Z,95971.72
2022-09-17T17:58:01.737Z,95981.00
2022-09-17T18:00:30.415Z,95989.78
2022-09-17T18:02:58.860Z,95986.09
2022-09-17T18:05:29.405Z,95975.00
2022-09-17T18:08:01.584Z,96003.94
2022-09-17T18:10:31.765Z,95981.47
2022-09-17T18:13:12.029Z,95996.72
2022-09-17T18:15:53.473Z,95981.91
2022-09-17T18:18:44.638Z,95999.31
2022-09-17T18:24:15.563Z,95970.03
2022-09-17T18:26:51.584Z,95940.91
2022-09-17T18:29:28.593Z,95933.69
2022-09-17T18:31:57.707Z,95916.69
2022-09-17T18:34:31.658Z,95917.41
2022-09-17T18:37:03.849Z,95921.84
2022-09-17T18:40:11.626Z,95941.25
2022-09-17T18:43:13.948Z,95938.34
2022-09-17T18:46:08.414Z,95940.63
2022-09-17T18:48:43.255Z,95953.22
2022-09-17T18:51:17.743Z,95969.84
2022-09-17T18:53:51.764Z,95942.88
2022-09-17T18:56:28.479Z,95956.19
2022-09-17T19:02:17.743Z,95978.19
2022-09-17T19:04:50.897Z,95984.03
2022-09-17T19:07:23.988Z,95972.50
2022-09-17T19:10:01.943Z,95973.88
2022-09-17T19:12:33.647Z,95979.44
2022-09-17T19:15:03.474Z,95966.97
2022-09-17T19:18:14.211Z,95971.63
2022-09-17T19:20:57.590Z,95975.47
2022-09-17T19:23:38.405Z,95972.25
2022-09-17T19:26:19.728Z,95960.06
2022-09-17T19:28:49.661Z,95963.47
2022-09-17T19:31:21.442Z,95958.53
2022-09-17T19:33:56.014Z,95963.16
2022-09-17T19:36:29.889Z,95952.53
2022-09-17T19:39:00.981Z,95947.94
2022-09-17T19:41:35.146Z,95959.00
2022-09-17T19:44:07.319Z,95955.94
2022-09-17T19:46:46.837Z,95964.53
2022-09-17T19:49:16.548Z,95974.72
2022-09-17T19:51:55.534Z,95976.69
2022-09-17T19:54:27.469Z,95971.00
2022-09-17T19:56:58.116Z,95977.94
2022-09-17T19:59:29.134Z,95968.69
2022-09-17T20:02:02.284Z,95959.31
2022-09-17T20:04:33.601Z,95961.44
2022-09-17T20:07:04.806Z,95941.63
2022-09-17T20:09:34.080Z,95932.09
2022-09-17T20:12:05.516Z,95943.00
2022-09-17T20:14:34.249Z,95929.47
2022-09-17T20:17:10.723Z,95929.16
2022-09-17T20:19:42.691Z,95939.47
2022-09-17T20:22:13.124Z,95940.56
2022-09-17T20:24:44.819Z,95936.53
2022-09-17T20:27:18.044Z,95947.00
2022-09-17T20:30:00.182Z,95939.28
2022-09-17T20:32:31.447Z,95948.94
2022-09-17T20:35:03.451Z,95931.28
2022-09-17T20:38:33.140Z,95926.50
2022-09-17T20:40:25.864Z,95929.75
2022-09-17T20:42:54.335Z,95919.09
2022-09-17T20:45:22.669Z,95932.34
2022-09-17T20:47:51.533Z,95926.97
2022-09-17T20:50:20.990Z,95932.19
2022-09-17T20:52:49.505Z,95933.69
2022-09-17T20:55:18.257Z,95925.53
2022-09-17T20:57:46.879Z,95924.31
2022-09-17T21:00:22.058Z,95931.50
2022-09-17T21:02:54.488Z,95925.69
2022-09-17T21:05:23.245Z,95931.84
2022-09-17T21:07:52.646Z,95932.44
2022-09-17T21:10:21.036Z,95918.78
2022-09-17T21:12:49.469Z,95908.59
2022-09-17T21:15:18.437Z,95904.63
2022-09-17T21:17:48.510Z,95919.38
2022-09-17T21:20:16.904Z,95910.97
2022-09-17T21:22:45.369Z,95916.50
2022-09-17T21:46:07.180Z,95897.72
2022-09-17T21:48:37.247Z,95890.63
2022-09-17T21:51:10.351Z,95905.81
2022-09-17T21:53:38.579Z,95918.16
2022-09-17T21:56:13.898Z,95911.19
2022-09-17T21:58:42.922Z,95921.19
2022-09-17T22:01:19.694Z,95915.38
2022-09-17T22:03:48.349Z,95910.44
2022-09-17T22:06:28.217Z,95924.16
2022-09-17T22:08:56.925Z,95919.84
2022-09-17T22:11:38.350Z,95921.25
2022-09-17T22:14:11.173Z,95915.34
2022-09-17T22:16:42.046Z,95922.47
2022-09-17T22:19:11.714Z,95925.28
2022-09-17T22:21:42.997Z,95932.31
2022-09-17T22:24:12.073Z,95926.94
2022-09-17T22:26:43.590Z,95920.47
2022-09-17T22:29:13.542Z,95924.94
2022-09-17T22:31:42.001Z,95924.78
2022-09-17T22:34:11.650Z,95932.03
2022-09-17T22:36:40.096Z,95936.19
2022-09-17T22:39:08.570Z,95941.25
2022-09-17T22:41:38.066Z,95938.97
2022-09-17T22:44:07.373Z,95952.50
2022-09-17T22:46:42.020Z,95948.19
2022-09-17T22:49:10.938Z,95960.06
2022-09-17T22:51:40.960Z,95958.69
2022-09-17T22:54:12.159Z,95956.53
2022-09-17T22:56:40.526Z,95952.34
2022-09-17T22:59:08.965Z,95960.06
2022-09-17T23:01:37.591Z,95960.53
2022-09-17T23:04:05.995Z,95955.78
2022-09-17T23:06:38.263Z,95958.22
2022-09-17T23:09:07.088Z,95967.75
2022-09-17T23:11:38.589Z,95949.44
2022-09-17T23:14:09.356Z,95964.66
2022-09-17T23:16:39.883Z,95972.81
2022-09-17T23:19:08.222Z,95972.38
2022-09-17T23:21:37.137Z,95976.38
2022-09-17T23:24:05.553Z,95975.47
2022-09-17T23:26:33.783Z,95971.63
2022-09-17T23:29:05.408Z,95973.16
2022-09-17T23:31:37.315Z,95993.31
2022-09-17T23:34:06.480Z,95983.88
2022-09-17T23:36:36.432Z,96001.56
2022-09-17T23:39:04.863Z,96004.81
2022-09-17T23:41:35.488Z,95990.34
2022-09-17T23:44:06.479Z,96008.19
2022-09-17T23:46:37.254Z,96024.00
2022-09-17T23:49:05.886Z,96018.59
2022-09-17T23:51:35.303Z,96014.13
2022-09-17T23:54:05.471Z,96033.22
2022-09-17T23:56:34.039Z,96039.38
2022-09-17T23:59:04.255Z,96032.25
